Terminal Aerodrome Forecast
Issued by NWS

Home | Current Version | Previous Version | Text Only | Print | Product List | Glossary On
Versions: 1 2 3 4 5 6 7 8 9 10 11 12 13 14 15 16 17 18 19 20
000
FTUS41 KGYX 241949 AAA
TAFLEB
TAF AMD
KLEB 241949Z 2420/2518 26012G25KT P6SM SCT100
      TEMPO 2420/2424 BKN100
     FM250000 19002KT P6SM SCT250
     FM251200 23002KT P6SM OVC100
     FM251600 22009KT P6SM BKN050=

USA.gov is the U.S. government's official web portal to all federal, state and local government web resources and services.